sensor_id;sensor_type;location;lat;lon;timestamp;temperature;humidity
23755;DHT22;12057;52.042;6.830;2023-04-03T00:02:55;4.30;99.90
23755;DHT22;12057;52.042;6.830;2023-04-03T00:07:56;4.30;99.90
23755;DHT22;12057;52.042;6.830;2023-04-03T00:12:57;4.20;99.90
23755;DHT22;12057;52.042;6.830;2023-04-03T00:17:58;4.20;99.90
23755;DHT22;12057;52.042;6.830;2023-04-03T00:22:59;4.20;99.90
23755;DHT22;12057;52.042;6.830;2023-04-03T00:28:00;4.10;99.90
23755;DHT22;12057;52.042;6.830;2023-04-03T00:33:01;4.00;99.90
23755;DHT22;12057;52.042;6.830;2023-04-03T00:38:02;3.90;99.90
23755;DHT22;12057;52.042;6.830;2023-04-03T00:43:13;4.00;99.90
23755;DHT22;12057;52.042;6.830;2023-04-03T00:48:26;3.90;99.90
23755;DHT22;12057;52.042;6.830;2023-04-03T00:53:46;3.90;99.90
23755;DHT22;12057;52.042;6.830;2023-04-03T00:59:09;3.80;99.90
23755;DHT22;12057;52.042;6.830;2023-04-03T01:09:31;3.70;99.90
23755;DHT22;12057;52.042;6.830;2023-04-03T01:14:33;3.70;99.90
23755;DHT22;12057;52.042;6.830;2023-04-03T01:19:36;3.70;99.90
23755;DHT22;12057;52.042;6.830;2023-04-03T01:24:40;3.60;99.90
23755;DHT22;12057;52.042;6.830;2023-04-03T01:29:41;3.50;99.90
23755;DHT22;12057;52.042;6.830;2023-04-03T01:34:43;3.50;99.90
23755;DHT22;12057;52.042;6.830;2023-04-03T01:39:44;3.50;99.90
23755;DHT22;12057;52.042;6.830;2023-04-03T01:44:45;3.50;99.90
23755;DHT22;12057;52.042;6.830;2023-04-03T01:49:46;3.50;99.90
23755;DHT22;12057;52.042;6.830;2023-04-03T01:54:47;3.40;99.90
23755;DHT22;12057;52.042;6.830;2023-04-03T01:59:48;3.40;99.90
23755;DHT22;12057;52.042;6.830;2023-04-03T02:04:48;3.30;99.90
23755;DHT22;12057;52.042;6.830;2023-04-03T02:09:49;3.30;99.90
23755;DHT22;12057;52.042;6.830;2023-04-03T02:14:50;3.30;99.90
23755;DHT22;12057;52.042;6.830;2023-04-03T02:19:51;3.20;99.90
23755;DHT22;12057;52.042;6.830;2023-04-03T02:24:52;3.20;99.90
23755;DHT22;12057;52.042;6.830;2023-04-03T02:29:52;3.10;99.90
23755;DHT22;12057;52.042;6.830;2023-04-03T02:34:53;3.10;99.90
23755;DHT22;12057;52.042;6.830;2023-04-03T02:39:54;3.00;99.90
23755;DHT22;12057;52.042;6.830;2023-04-03T02:44:55;2.90;99.90
23755;DHT22;12057;52.042;6.830;2023-04-03T02:49:56;2.90;99.90
23755;DHT22;12057;52.042;6.830;2023-04-03T02:54:57;2.90;99.90
23755;DHT22;12057;52.042;6.830;2023-04-03T02:59:57;2.90;99.90
23755;DHT22;12057;52.042;6.830;2023-04-03T03:04:58;2.70;99.90
23755;DHT22;12057;52.042;6.830;2023-04-03T03:09:59;2.70;99.90
23755;DHT22;12057;52.042;6.830;2023-04-03T03:15:00;2.60;99.90
23755;DHT22;12057;52.042;6.830;2023-04-03T03:20:01;2.50;99.90
23755;DHT22;12057;52.042;6.830;2023-04-03T03:25:02;2.50;99.90
23755;DHT22;12057;52.042;6.830;2023-04-03T03:30:04;2.50;99.90
23755;DHT22;12057;52.042;6.830;2023-04-03T03:35:06;2.40;99.90
23755;DHT22;12057;52.042;6.830;2023-04-03T03:40:07;2.30;99.90
23755;DHT22;12057;52.042;6.830;2023-04-03T03:45:09;2.30;99.90
23755;DHT22;12057;52.042;6.830;2023-04-03T03:50:10;2.20;99.90
23755;DHT22;12057;52.042;6.830;2023-04-03T03:55:10;2.20;99.90
23755;DHT22;12057;52.042;6.830;2023-04-03T04:00:11;2.10;99.90
23755;DHT22;12057;52.042;6.830;2023-04-03T04:05:12;2.00;99.90
23755;DHT22;12057;52.042;6.830;2023-04-03T04:10:13;1.90;99.90
23755;DHT22;12057;52.042;6.830;2023-04-03T04:15:14;1.90;99.90
23755;DHT22;12057;52.042;6.830;2023-04-03T04:20:15;1.80;99.90
23755;DHT22;12057;52.042;6.830;2023-04-03T04:25:16;1.70;99.90
23755;DHT22;12057;52.042;6.830;2023-04-03T04:30:17;1.70;99.90
23755;DHT22;12057;52.042;6.830;2023-04-03T04:35:17;1.60;99.90
23755;DHT22;12057;52.042;6.830;2023-04-03T04:40:18;1.60;99.90
23755;DHT22;12057;52.042;6.830;2023-04-03T04:45:19;1.60;99.90
23755;DHT22;12057;52.042;6.830;2023-04-03T04:50:20;1.60;99.90
23755;DHT22;12057;52.042;6.830;2023-04-03T04:55:21;1.60;99.90
23755;DHT22;12057;52.042;6.830;2023-04-03T05:00:22;1.60;99.90
23755;DHT22;12057;52.042;6.830;2023-04-03T05:05:22;1.50;99.90
23755;DHT22;12057;52.042;6.830;2023-04-03T05:10:23;1.50;99.90
23755;DHT22;12057;52.042;6.830;2023-04-03T05:15:24;1.40;99.90
23755;DHT22;12057;52.042;6.830;2023-04-03T05:20:25;1.40;99.90
23755;DHT22;12057;52.042;6.830;2023-04-03T05:25:26;1.30;99.90
23755;DHT22;12057;52.042;6.830;2023-04-03T05:30:27;1.30;99.90
23755;DHT22;12057;52.042;6.830;2023-04-03T05:35:27;1.30;99.90
23755;DHT22;12057;52.042;6.830;2023-04-03T05:40:28;1.30;99.90
23755;DHT22;12057;52.042;6.830;2023-04-03T05:45:29;1.30;99.90
23755;DHT22;12057;52.042;6.830;2023-04-03T05:50:30;1.40;99.90
23755;DHT22;12057;52.042;6.830;2023-04-03T05:55:31;1.40;99.90
23755;DHT22;12057;52.042;6.830;2023-04-03T06:00:32;1.40;99.90
23755;DHT22;12057;52.042;6.830;2023-04-03T06:05:33;1.40;99.90
23755;DHT22;12057;52.042;6.830;2023-04-03T06:10:34;1.40;99.90
23755;DHT22;12057;52.042;6.830;2023-04-03T06:15:34;1.40;99.90
23755;DHT22;12057;52.042;6.830;2023-04-03T06:20:35;1.50;99.90
23755;DHT22;12057;52.042;6.830;2023-04-03T06:25:36;1.70;99.90
23755;DHT22;12057;52.042;6.830;2023-04-03T06:30:37;1.90;99.90
23755;DHT22;12057;52.042;6.830;2023-04-03T06:35:38;2.20;99.90
23755;DHT22;12057;52.042;6.830;2023-04-03T06:40:39;2.50;99.90
23755;DHT22;12057;52.042;6.830;2023-04-03T06:45:39;2.70;99.90
23755;DHT22;12057;52.042;6.830;2023-04-03T06:50:40;2.90;99.90
23755;DHT22;12057;52.042;6.830;2023-04-03T06:55:41;3.10;99.90
23755;DHT22;12057;52.042;6.830;2023-04-03T07:00:42;3.50;99.90
23755;DHT22;12057;52.042;6.830;2023-04-03T07:05:43;3.70;99.90
23755;DHT22;12057;52.042;6.830;2023-04-03T07:10:45;3.70;99.90
23755;DHT22;12057;52.042;6.830;2023-04-03T07:15:46;3.90;99.90
23755;DHT22;12057;52.042;6.830;2023-04-03T07:20:46;4.10;99.90
23755;DHT22;12057;52.042;6.830;2023-04-03T07:25:49;4.20;99.90
23755;DHT22;12057;52.042;6.830;2023-04-03T07:30:52;4.60;99.90
23755;DHT22;12057;52.042;6.830;2023-04-03T07:35:53;4.50;99.90
23755;DHT22;12057;52.042;6.830;2023-04-03T07:40:54;4.70;99.90
23755;DHT22;12057;52.042;6.830;2023-04-03T07:45:55;5.00;99.90
23755;DHT22;12057;52.042;6.830;2023-04-03T07:50:59;5.10;99.90
23755;DHT22;12057;52.042;6.830;2023-04-03T07:56:01;5.30;99.90
23755;DHT22;12057;52.042;6.830;2023-04-03T08:01:03;5.50;99.90
23755;DHT22;12057;52.042;6.830;2023-04-03T08:06:06;5.70;99.90
23755;DHT22;12057;52.042;6.830;2023-04-03T08:11:07;5.90;99.90
23755;DHT22;12057;52.042;6.830;2023-04-03T08:16:15;6.00;99.90
23755;DHT22;12057;52.042;6.830;2023-04-03T08:21:16;6.20;99.90
23755;DHT22;12057;52.042;6.830;2023-04-03T08:26:20;6.40;99.90
23755;DHT22;12057;52.042;6.830;2023-04-03T08:31:21;6.60;99.90
23755;DHT22;12057;52.042;6.830;2023-04-03T08:36:25;6.70;99.90
23755;DHT22;12057;52.042;6.830;2023-04-03T08:41:44;6.90;99.90
23755;DHT22;12057;52.042;6.830;2023-04-03T08:51:51;6.80;99.90
23755;DHT22;12057;52.042;6.830;2023-04-03T08:56:52;7.00;99.90
23755;DHT22;12057;52.042;6.830;2023-04-03T09:01:54;7.20;99.90
23755;DHT22;12057;52.042;6.830;2023-04-03T09:07:02;7.50;99.90
23755;DHT22;12057;52.042;6.830;2023-04-03T09:22:33;8.10;98.30
23755;DHT22;12057;52.042;6.830;2023-04-03T09:27:38;8.30;99.90
23755;DHT22;12057;52.042;6.830;2023-04-03T09:32:38;8.40;95.70
23755;DHT22;12057;52.042;6.830;2023-04-03T09:37:45;8.40;93.70
23755;DHT22;12057;52.042;6.830;2023-04-03T09:42:47;8.60;94.00
23755;DHT22;12057;52.042;6.830;2023-04-03T09:47:48;8.70;90.90
23755;DHT22;12057;52.042;6.830;2023-04-03T09:52:50;9.10;91.40
23755;DHT22;12057;52.042;6.830;2023-04-03T09:57:57;8.80;85.10
23755;DHT22;12057;52.042;6.830;2023-04-03T10:02:58;8.80;87.40
23755;DHT22;12057;52.042;6.830;2023-04-03T10:13:18;9.30;89.20
23755;DHT22;12057;52.042;6.830;2023-04-03T10:18:41;9.40;88.70
23755;DHT22;12057;52.042;6.830;2023-04-03T10:24:11;9.20;86.30
23755;DHT22;12057;52.042;6.830;2023-04-03T10:34:40;9.70;86.90
23755;DHT22;12057;52.042;6.830;2023-04-03T10:40:23;9.90;85.90
23755;DHT22;12057;52.042;6.830;2023-04-03T10:56:29;9.40;81.80
23755;DHT22;12057;52.042;6.830;2023-04-03T11:01:33;9.20;83.30
23755;DHT22;12057;52.042;6.830;2023-04-03T11:06:39;9.40;84.50
23755;DHT22;12057;52.042;6.830;2023-04-03T11:11:43;9.40;84.20
23755;DHT22;12057;52.042;6.830;2023-04-03T11:16:47;9.10;82.50
23755;DHT22;12057;52.042;6.830;2023-04-03T11:22:04;9.40;84.90
23755;DHT22;12057;52.042;6.830;2023-04-03T11:27:19;9.50;82.50
23755;DHT22;12057;52.042;6.830;2023-04-03T11:37:49;9.50;83.40
23755;DHT22;12057;52.042;6.830;2023-04-03T11:48:47;9.80;84.50
23755;DHT22;12057;52.042;6.830;2023-04-03T11:53:49;9.70;83.30
23755;DHT22;12057;52.042;6.830;2023-04-03T12:04:14;9.80;83.10
23755;DHT22;12057;52.042;6.830;2023-04-03T12:09:26;10.00;84.60
23755;DHT22;12057;52.042;6.830;2023-04-03T12:14:28;10.10;81.90
23755;DHT22;12057;52.042;6.830;2023-04-03T12:19:36;10.20;84.60
23755;DHT22;12057;52.042;6.830;2023-04-03T12:24:46;10.40;84.70
23755;DHT22;12057;52.042;6.830;2023-04-03T12:40:31;10.20;85.10
23755;DHT22;12057;52.042;6.830;2023-04-03T12:45:57;10.30;87.90
23755;DHT22;12057;52.042;6.830;2023-04-03T12:51:03;10.40;85.20
23755;DHT22;12057;52.042;6.830;2023-04-03T12:56:24;10.20;85.20
23755;DHT22;12057;52.042;6.830;2023-04-03T13:01:26;9.60;82.30
23755;DHT22;12057;52.042;6.830;2023-04-03T13:06:47;9.80;84.80
23755;DHT22;12057;52.042;6.830;2023-04-03T13:11:50;9.90;84.60
23755;DHT22;12057;52.042;6.830;2023-04-03T13:17:14;10.00;83.80
23755;DHT22;12057;52.042;6.830;2023-04-03T13:22:37;10.20;85.80
23755;DHT22;12057;52.042;6.830;2023-04-03T13:27:44;10.10;84.30
23755;DHT22;12057;52.042;6.830;2023-04-03T13:32:45;10.10;85.60
23755;DHT22;12057;52.042;6.830;2023-04-03T13:37:57;10.50;87.40
23755;DHT22;12057;52.042;6.830;2023-04-03T13:43:19;10.90;85.60
23755;DHT22;12057;52.042;6.830;2023-04-03T13:48:20;10.60;84.50
23755;DHT22;12057;52.042;6.830;2023-04-03T13:53:23;10.60;85.30
23755;DHT22;12057;52.042;6.830;2023-04-03T13:58:29;10.40;87.10
23755;DHT22;12057;52.042;6.830;2023-04-03T14:08:46;10.50;86.00
23755;DHT22;12057;52.042;6.830;2023-04-03T14:13:48;10.40;85.80
23755;DHT22;12057;52.042;6.830;2023-04-03T14:18:49;10.60;89.30
23755;DHT22;12057;52.042;6.830;2023-04-03T14:23:51;10.10;83.20
23755;DHT22;12057;52.042;6.830;2023-04-03T14:28:54;10.20;85.70
23755;DHT22;12057;52.042;6.830;2023-04-03T14:33:56;10.20;86.60
23755;DHT22;12057;52.042;6.830;2023-04-03T14:38:57;9.90;85.50
23755;DHT22;12057;52.042;6.830;2023-04-03T14:43:58;9.80;84.50
23755;DHT22;12057;52.042;6.830;2023-04-03T14:48:59;9.70;85.40
23755;DHT22;12057;52.042;6.830;2023-04-03T14:54:00;9.70;87.20
23755;DHT22;12057;52.042;6.830;2023-04-03T14:59:01;9.60;84.50
23755;DHT22;12057;52.042;6.830;2023-04-03T15:04:15;9.60;86.40
23755;DHT22;12057;52.042;6.830;2023-04-03T15:09:27;9.60;86.50
23755;DHT22;12057;52.042;6.830;2023-04-03T15:14:28;9.50;86.60
23755;DHT22;12057;52.042;6.830;2023-04-03T15:19:32;9.40;85.30
23755;DHT22;12057;52.042;6.830;2023-04-03T15:24:35;9.20;87.40
23755;DHT22;12057;52.042;6.830;2023-04-03T15:29:37;9.30;87.40
23755;DHT22;12057;52.042;6.830;2023-04-03T15:34:39;9.30;86.30
23755;DHT22;12057;52.042;6.830;2023-04-03T15:39:40;9.30;86.00
23755;DHT22;12057;52.042;6.830;2023-04-03T15:44:40;9.20;87.90
23755;DHT22;12057;52.042;6.830;2023-04-03T15:49:41;9.40;87.50
23755;DHT22;12057;52.042;6.830;2023-04-03T15:54:42;9.60;89.00
23755;DHT22;12057;52.042;6.830;2023-04-03T15:59:44;9.10;86.40
23755;DHT22;12057;52.042;6.830;2023-04-03T16:04:51;8.70;85.80
23755;DHT22;12057;52.042;6.830;2023-04-03T16:10:06;8.60;88.60
23755;DHT22;12057;52.042;6.830;2023-04-03T16:15:15;8.60;88.50
23755;DHT22;12057;52.042;6.830;2023-04-03T16:20:21;8.90;90.60
23755;DHT22;12057;52.042;6.830;2023-04-03T16:25:26;8.70;89.70
23755;DHT22;12057;52.042;6.830;2023-04-03T16:30:43;8.50;88.10
23755;DHT22;12057;52.042;6.830;2023-04-03T16:35:57;8.40;90.40
23755;DHT22;12057;52.042;6.830;2023-04-03T16:40:59;8.30;90.00
23755;DHT22;12057;52.042;6.830;2023-04-03T16:46:12;8.10;90.00
23755;DHT22;12057;52.042;6.830;2023-04-03T16:51:26;8.20;89.10
23755;DHT22;12057;52.042;6.830;2023-04-03T16:56:35;8.10;89.50
23755;DHT22;12057;52.042;6.830;2023-04-03T17:01:39;8.00;89.10
23755;DHT22;12057;52.042;6.830;2023-04-03T17:06:52;8.00;90.10
23755;DHT22;12057;52.042;6.830;2023-04-03T17:11:56;8.00;91.00
23755;DHT22;12057;52.042;6.830;2023-04-03T17:17:26;8.10;91.40
23755;DHT22;12057;52.042;6.830;2023-04-03T17:22:35;8.00;89.90
23755;DHT22;12057;52.042;6.830;2023-04-03T17:27:52;7.80;90.30
23755;DHT22;12057;52.042;6.830;2023-04-03T17:32:57;7.80;90.00
23755;DHT22;12057;52.042;6.830;2023-04-03T17:38:03;7.70;90.10
23755;DHT22;12057;52.042;6.830;2023-04-03T17:43:22;7.60;90.40
23755;DHT22;12057;52.042;6.830;2023-04-03T17:48:33;7.50;90.80
23755;DHT22;12057;52.042;6.830;2023-04-03T17:54:02;7.40;91.80
23755;DHT22;12057;52.042;6.830;2023-04-03T18:05:03;7.10;93.00
23755;DHT22;12057;52.042;6.830;2023-04-03T18:10:06;7.00;92.00
23755;DHT22;12057;52.042;6.830;2023-04-03T18:15:08;6.90;92.10
23755;DHT22;12057;52.042;6.830;2023-04-03T18:20:10;6.90;93.00
23755;DHT22;12057;52.042;6.830;2023-04-03T18:25:14;6.70;93.30
23755;DHT22;12057;52.042;6.830;2023-04-03T18:30:16;6.60;93.60
23755;DHT22;12057;52.042;6.830;2023-04-03T18:35:17;6.60;94.00
23755;DHT22;12057;52.042;6.830;2023-04-03T18:40:18;6.50;95.00
23755;DHT22;12057;52.042;6.830;2023-04-03T18:45:21;6.50;96.10
23755;DHT22;12057;52.042;6.830;2023-04-03T18:50:22;6.30;96.40
23755;DHT22;12057;52.042;6.830;2023-04-03T18:55:23;6.20;96.80
23755;DHT22;12057;52.042;6.830;2023-04-03T19:00:27;6.10;98.30
23755;DHT22;12057;52.042;6.830;2023-04-03T19:05:28;5.90;98.20
23755;DHT22;12057;52.042;6.830;2023-04-03T19:10:29;5.80;99.50
23755;DHT22;12057;52.042;6.830;2023-04-03T19:15:30;5.60;99.90
23755;DHT22;12057;52.042;6.830;2023-04-03T19:20:31;5.60;99.90
23755;DHT22;12057;52.042;6.830;2023-04-03T19:25:32;5.50;99.90
23755;DHT22;12057;52.042;6.830;2023-04-03T19:30:32;5.30;99.90
23755;DHT22;12057;52.042;6.830;2023-04-03T19:35:33;5.20;99.90
23755;DHT22;12057;52.042;6.830;2023-04-03T19:40:34;5.10;99.90
23755;DHT22;12057;52.042;6.830;2023-04-03T19:45:37;5.00;99.90
23755;DHT22;12057;52.042;6.830;2023-04-03T19:50:38;4.80;99.90
23755;DHT22;12057;52.042;6.830;2023-04-03T19:55:39;4.60;99.90
23755;DHT22;12057;52.042;6.830;2023-04-03T20:00:40;4.50;99.90
23755;DHT22;12057;52.042;6.830;2023-04-03T20:05:41;4.60;99.90
23755;DHT22;12057;52.042;6.830;2023-04-03T20:10:42;4.60;99.90
23755;DHT22;12057;52.042;6.830;2023-04-03T20:15:43;4.60;99.90
23755;DHT22;12057;52.042;6.830;2023-04-03T20:20:44;4.60;99.90
23755;DHT22;12057;52.042;6.830;2023-04-03T20:25:52;4.50;99.90
23755;DHT22;12057;52.042;6.830;2023-04-03T20:30:56;4.40;99.90
23755;DHT22;12057;52.042;6.830;2023-04-03T20:35:58;4.40;99.90
23755;DHT22;12057;52.042;6.830;2023-04-03T20:40:59;4.30;99.90
23755;DHT22;12057;52.042;6.830;2023-04-03T20:46:01;4.20;99.90
23755;DHT22;12057;52.042;6.830;2023-04-03T20:51:13;4.10;99.90
23755;DHT22;12057;52.042;6.830;2023-04-03T20:56:15;3.90;99.90
23755;DHT22;12057;52.042;6.830;2023-04-03T21:01:20;3.70;99.90
23755;DHT22;12057;52.042;6.830;2023-04-03T21:23:16;3.30;99.90
23755;DHT22;12057;52.042;6.830;2023-04-03T21:28:16;3.30;99.90
23755;DHT22;12057;52.042;6.830;2023-04-03T21:33:21;3.10;99.90
23755;DHT22;12057;52.042;6.830;2023-04-03T21:38:22;3.20;99.90
23755;DHT22;12057;52.042;6.830;2023-04-03T21:43:24;3.10;99.90
23755;DHT22;12057;52.042;6.830;2023-04-03T21:48:25;3.00;99.90
23755;DHT22;12057;52.042;6.830;2023-04-03T21:53:33;2.90;99.90
23755;DHT22;12057;52.042;6.830;2023-04-03T21:58:34;2.80;99.90
23755;DHT22;12057;52.042;6.830;2023-04-03T22:03:36;2.70;99.90
23755;DHT22;12057;52.042;6.830;2023-04-03T22:08:37;2.60;99.90
23755;DHT22;12057;52.042;6.830;2023-04-03T22:13:38;2.60;99.90
23755;DHT22;12057;52.042;6.830;2023-04-03T22:18:42;2.60;99.90
23755;DHT22;12057;52.042;6.830;2023-04-03T22:23:48;2.30;99.90
23755;DHT22;12057;52.042;6.830;2023-04-03T22:28:52;2.30;99.90
23755;DHT22;12057;52.042;6.830;2023-04-03T22:34:00;2.20;99.90
23755;DHT22;12057;52.042;6.830;2023-04-03T22:39:14;2.30;99.90
23755;DHT22;12057;52.042;6.830;2023-04-03T22:44:22;2.40;99.90
23755;DHT22;12057;52.042;6.830;2023-04-03T22:49:36;2.40;99.90
23755;DHT22;12057;52.042;6.830;2023-04-03T22:54:46;2.20;99.90
23755;DHT22;12057;52.042;6.830;2023-04-03T22:59:47;2.10;99.90
23755;DHT22;12057;52.042;6.830;2023-04-03T23:04:48;2.00;99.90
23755;DHT22;12057;52.042;6.830;2023-04-03T23:09:48;2.00;99.90
23755;DHT22;12057;52.042;6.830;2023-04-03T23:14:49;1.90;99.90
23755;DHT22;12057;52.042;6.830;2023-04-03T23:19:50;1.90;99.90
23755;DHT22;12057;52.042;6.830;2023-04-03T23:24:50;1.80;99.90
23755;DHT22;12057;52.042;6.830;2023-04-03T23:29:51;1.70;99.90
23755;DHT22;12057;52.042;6.830;2023-04-03T23:34:52;1.60;99.90
23755;DHT22;12057;52.042;6.830;2023-04-03T23:39:52;1.60;99.90
23755;DHT22;12057;52.042;6.830;2023-04-03T23:44:53;1.50;99.90
23755;DHT22;12057;52.042;6.830;2023-04-03T23:49:54;1.50;99.90
23755;DHT22;12057;52.042;6.830;2023-04-03T23:54:55;1.40;99.90
23755;DHT22;12057;52.042;6.830;2023-04-03T23:59:56;1.40;99.90
